sensor_id;sensor_type;location;lat;lon;timestamp;P1;durP1;ratioP1;P2;durP2;ratioP2
79220;SDS011;68648;52.114;5.424;2023-05-07T00:01:44;10.77;;;6.32;;
79220;SDS011;68648;52.114;5.424;2023-05-07T00:04:13;11.93;;;6.78;;
79220;SDS011;68648;52.114;5.424;2023-05-07T00:06:40;11.07;;;6.35;;
79220;SDS011;68648;52.114;5.424;2023-05-07T00:09:07;12.07;;;6.88;;
79220;SDS011;68648;52.114;5.424;2023-05-07T00:11:33;10.40;;;6.25;;
79220;SDS011;68648;52.114;5.424;2023-05-07T00:14:02;11.43;;;6.18;;
79220;SDS011;68648;52.114;5.424;2023-05-07T00:16:29;10.95;;;6.78;;
79220;SDS011;68648;52.114;5.424;2023-05-07T00:18:56;11.45;;;6.10;;
79220;SDS011;68648;52.114;5.424;2023-05-07T00:21:22;11.70;;;6.47;;
79220;SDS011;68648;52.114;5.424;2023-05-07T00:23:53;14.38;;;6.50;;
79220;SDS011;68648;52.114;5.424;2023-05-07T00:26:20;10.80;;;6.45;;
79220;SDS011;68648;52.114;5.424;2023-05-07T00:28:47;11.98;;;6.57;;
79220;SDS011;68648;52.114;5.424;2023-05-07T00:31:13;12.85;;;7.15;;
79220;SDS011;68648;52.114;5.424;2023-05-07T00:33:40;11.85;;;6.88;;
79220;SDS011;68648;52.114;5.424;2023-05-07T00:36:06;11.13;;;7.20;;
79220;SDS011;68648;52.114;5.424;2023-05-07T00:38:33;12.20;;;6.80;;
79220;SDS011;68648;52.114;5.424;2023-05-07T00:40:59;12.55;;;6.85;;
79220;SDS011;68648;52.114;5.424;2023-05-07T00:43:26;10.15;;;6.47;;
79220;SDS011;68648;52.114;5.424;2023-05-07T00:45:53;9.55;;;5.63;;
79220;SDS011;68648;52.114;5.424;2023-05-07T00:48:20;11.57;;;6.05;;
79220;SDS011;68648;52.114;5.424;2023-05-07T00:50:47;9.15;;;5.53;;
79220;SDS011;68648;52.114;5.424;2023-05-07T00:53:17;9.63;;;5.60;;
79220;SDS011;68648;52.114;5.424;2023-05-07T00:55:44;9.55;;;6.00;;
79220;SDS011;68648;52.114;5.424;2023-05-07T00:58:11;10.73;;;5.95;;
79220;SDS011;68648;52.114;5.424;2023-05-07T01:00:37;11.00;;;5.72;;
79220;SDS011;68648;52.114;5.424;2023-05-07T01:03:04;11.32;;;5.63;;
79220;SDS011;68648;52.114;5.424;2023-05-07T01:05:31;11.00;;;5.70;;
79220;SDS011;68648;52.114;5.424;2023-05-07T01:08:01;11.82;;;6.15;;
79220;SDS011;68648;52.114;5.424;2023-05-07T01:10:30;11.50;;;6.05;;
79220;SDS011;68648;52.114;5.424;2023-05-07T01:12:57;12.48;;;6.63;;
79220;SDS011;68648;52.114;5.424;2023-05-07T01:15:26;9.73;;;5.78;;
79220;SDS011;68648;52.114;5.424;2023-05-07T01:17:52;10.85;;;6.13;;
79220;SDS011;68648;52.114;5.424;2023-05-07T01:20:19;10.43;;;5.85;;
79220;SDS011;68648;52.114;5.424;2023-05-07T01:22:46;12.40;;;5.97;;
79220;SDS011;68648;52.114;5.424;2023-05-07T01:25:13;10.45;;;6.13;;
79220;SDS011;68648;52.114;5.424;2023-05-07T01:27:39;10.20;;;5.22;;
79220;SDS011;68648;52.114;5.424;2023-05-07T01:30:06;10.68;;;5.78;;
79220;SDS011;68648;52.114;5.424;2023-05-07T01:32:43;10.57;;;6.28;;
79220;SDS011;68648;52.114;5.424;2023-05-07T01:35:34;11.10;;;5.90;;
79220;SDS011;68648;52.114;5.424;2023-05-07T01:38:05;11.18;;;5.55;;
79220;SDS011;68648;52.114;5.424;2023-05-07T01:40:33;12.32;;;6.45;;
79220;SDS011;68648;52.114;5.424;2023-05-07T01:43:03;12.27;;;6.55;;
79220;SDS011;68648;52.114;5.424;2023-05-07T01:45:30;10.63;;;6.05;;
79220;SDS011;68648;52.114;5.424;2023-05-07T01:48:02;11.75;;;6.30;;
79220;SDS011;68648;52.114;5.424;2023-05-07T01:50:30;9.52;;;6.03;;
79220;SDS011;68648;52.114;5.424;2023-05-07T01:52:58;12.50;;;6.15;;
79220;SDS011;68648;52.114;5.424;2023-05-07T01:55:25;11.32;;;6.55;;
79220;SDS011;68648;52.114;5.424;2023-05-07T01:57:52;10.65;;;5.68;;
79220;SDS011;68648;52.114;5.424;2023-05-07T02:00:18;13.38;;;6.63;;
79220;SDS011;68648;52.114;5.424;2023-05-07T02:02:45;10.95;;;6.95;;
79220;SDS011;68648;52.114;5.424;2023-05-07T02:05:12;9.95;;;5.97;;
79220;SDS011;68648;52.114;5.424;2023-05-07T02:07:39;12.02;;;6.32;;
79220;SDS011;68648;52.114;5.424;2023-05-07T02:10:05;10.50;;;5.88;;
79220;SDS011;68648;52.114;5.424;2023-05-07T02:12:32;8.88;;;5.45;;
79220;SDS011;68648;52.114;5.424;2023-05-07T02:14:59;11.40;;;6.13;;
79220;SDS011;68648;52.114;5.424;2023-05-07T02:17:26;8.95;;;5.50;;
79220;SDS011;68648;52.114;5.424;2023-05-07T02:19:52;10.68;;;6.35;;
79220;SDS011;68648;52.114;5.424;2023-05-07T02:22:21;11.40;;;6.70;;
79220;SDS011;68648;52.114;5.424;2023-05-07T02:24:48;10.70;;;6.28;;
79220;SDS011;68648;52.114;5.424;2023-05-07T02:27:15;14.48;;;7.05;;
79220;SDS011;68648;52.114;5.424;2023-05-07T02:29:41;13.07;;;7.20;;
79220;SDS011;68648;52.114;5.424;2023-05-07T02:32:08;12.98;;;6.97;;
79220;SDS011;68648;52.114;5.424;2023-05-07T02:34:35;13.25;;;6.75;;
79220;SDS011;68648;52.114;5.424;2023-05-07T02:37:01;11.05;;;6.38;;
79220;SDS011;68648;52.114;5.424;2023-05-07T02:39:28;13.50;;;6.97;;
79220;SDS011;68648;52.114;5.424;2023-05-07T02:41:54;11.13;;;6.13;;
79220;SDS011;68648;52.114;5.424;2023-05-07T02:44:21;11.45;;;6.60;;
79220;SDS011;68648;52.114;5.424;2023-05-07T02:46:47;10.13;;;6.35;;
79220;SDS011;68648;52.114;5.424;2023-05-07T02:49:14;11.38;;;6.82;;
79220;SDS011;68648;52.114;5.424;2023-05-07T02:51:41;14.07;;;6.65;;
79220;SDS011;68648;52.114;5.424;2023-05-07T02:54:07;11.43;;;6.88;;
79220;SDS011;68648;52.114;5.424;2023-05-07T02:56:34;10.95;;;7.32;;
79220;SDS011;68648;52.114;5.424;2023-05-07T02:59:00;11.10;;;7.00;;
79220;SDS011;68648;52.114;5.424;2023-05-07T03:01:29;11.43;;;7.38;;
79220;SDS011;68648;52.114;5.424;2023-05-07T03:03:56;11.43;;;6.63;;
79220;SDS011;68648;52.114;5.424;2023-05-07T03:06:23;14.05;;;7.35;;
79220;SDS011;68648;52.114;5.424;2023-05-07T03:08:49;12.05;;;6.80;;
79220;SDS011;68648;52.114;5.424;2023-05-07T03:11:19;11.57;;;6.50;;
79220;SDS011;68648;52.114;5.424;2023-05-07T03:13:46;11.77;;;6.47;;
79220;SDS011;68648;52.114;5.424;2023-05-07T03:16:12;12.65;;;7.07;;
79220;SDS011;68648;52.114;5.424;2023-05-07T03:18:39;10.70;;;7.50;;
79220;SDS011;68648;52.114;5.424;2023-05-07T03:21:06;11.88;;;7.18;;
79220;SDS011;68648;52.114;5.424;2023-05-07T03:23:32;10.93;;;6.38;;
79220;SDS011;68648;52.114;5.424;2023-05-07T03:25:59;11.23;;;7.15;;
79220;SDS011;68648;52.114;5.424;2023-05-07T03:28:25;12.65;;;6.70;;
79220;SDS011;68648;52.114;5.424;2023-05-07T03:30:52;12.35;;;7.03;;
79220;SDS011;68648;52.114;5.424;2023-05-07T03:33:19;11.73;;;7.45;;
79220;SDS011;68648;52.114;5.424;2023-05-07T03:35:45;13.68;;;7.65;;
79220;SDS011;68648;52.114;5.424;2023-05-07T03:38:12;14.00;;;7.82;;
79220;SDS011;68648;52.114;5.424;2023-05-07T03:40:44;13.40;;;7.65;;
79220;SDS011;68648;52.114;5.424;2023-05-07T03:43:10;11.55;;;6.65;;
79220;SDS011;68648;52.114;5.424;2023-05-07T03:45:38;10.23;;;6.50;;
79220;SDS011;68648;52.114;5.424;2023-05-07T03:48:05;10.45;;;6.35;;
79220;SDS011;68648;52.114;5.424;2023-05-07T03:50:32;11.30;;;7.00;;
79220;SDS011;68648;52.114;5.424;2023-05-07T03:52:58;12.23;;;6.85;;
79220;SDS011;68648;52.114;5.424;2023-05-07T03:55:24;15.27;;;7.55;;
79220;SDS011;68648;52.114;5.424;2023-05-07T03:57:51;13.35;;;8.32;;
79220;SDS011;68648;52.114;5.424;2023-05-07T04:00:18;12.50;;;7.88;;
79220;SDS011;68648;52.114;5.424;2023-05-07T04:02:46;14.05;;;7.78;;
79220;SDS011;68648;52.114;5.424;2023-05-07T04:05:13;13.50;;;7.68;;
79220;SDS011;68648;52.114;5.424;2023-05-07T04:07:40;11.95;;;6.80;;
79220;SDS011;68648;52.114;5.424;2023-05-07T04:10:07;10.65;;;6.68;;
79220;SDS011;68648;52.114;5.424;2023-05-07T04:12:34;9.18;;;5.90;;
79220;SDS011;68648;52.114;5.424;2023-05-07T04:15:01;9.15;;;5.70;;
79220;SDS011;68648;52.114;5.424;2023-05-07T04:17:27;10.65;;;7.00;;
79220;SDS011;68648;52.114;5.424;2023-05-07T04:19:54;10.98;;;6.57;;
79220;SDS011;68648;52.114;5.424;2023-05-07T04:22:20;10.80;;;6.75;;
79220;SDS011;68648;52.114;5.424;2023-05-07T04:24:47;14.82;;;7.53;;
79220;SDS011;68648;52.114;5.424;2023-05-07T04:27:13;13.05;;;7.30;;
79220;SDS011;68648;52.114;5.424;2023-05-07T04:29:40;10.25;;;6.75;;
79220;SDS011;68648;52.114;5.424;2023-05-07T04:32:09;13.68;;;6.80;;
79220;SDS011;68648;52.114;5.424;2023-05-07T04:34:36;12.50;;;6.75;;
79220;SDS011;68648;52.114;5.424;2023-05-07T04:37:02;14.18;;;7.38;;
79220;SDS011;68648;52.114;5.424;2023-05-07T04:39:29;12.90;;;6.85;;
79220;SDS011;68648;52.114;5.424;2023-05-07T04:41:55;12.13;;;6.97;;
79220;SDS011;68648;52.114;5.424;2023-05-07T04:44:22;10.40;;;6.40;;
79220;SDS011;68648;52.114;5.424;2023-05-07T04:46:49;16.08;;;7.38;;
79220;SDS011;68648;52.114;5.424;2023-05-07T04:49:15;12.88;;;7.03;;
79220;SDS011;68648;52.114;5.424;2023-05-07T04:51:42;14.55;;;7.53;;
79220;SDS011;68648;52.114;5.424;2023-05-07T04:54:10;13.80;;;7.95;;
79220;SDS011;68648;52.114;5.424;2023-05-07T04:56:36;15.73;;;7.93;;
79220;SDS011;68648;52.114;5.424;2023-05-07T04:59:03;15.52;;;8.23;;
79220;SDS011;68648;52.114;5.424;2023-05-07T05:01:29;14.25;;;8.25;;
79220;SDS011;68648;52.114;5.424;2023-05-07T05:03:56;15.88;;;9.05;;
79220;SDS011;68648;52.114;5.424;2023-05-07T05:06:23;14.82;;;8.13;;
79220;SDS011;68648;52.114;5.424;2023-05-07T05:08:49;14.30;;;7.70;;
79220;SDS011;68648;52.114;5.424;2023-05-07T05:11:16;14.60;;;7.47;;
79220;SDS011;68648;52.114;5.424;2023-05-07T05:13:42;15.90;;;8.25;;
79220;SDS011;68648;52.114;5.424;2023-05-07T05:16:09;14.60;;;7.28;;
79220;SDS011;68648;52.114;5.424;2023-05-07T05:18:35;15.02;;;8.50;;
79220;SDS011;68648;52.114;5.424;2023-05-07T05:21:02;19.15;;;8.52;;
79220;SDS011;68648;52.114;5.424;2023-05-07T05:23:29;17.27;;;8.43;;
79220;SDS011;68648;52.114;5.424;2023-05-07T05:25:58;14.00;;;7.88;;
79220;SDS011;68648;52.114;5.424;2023-05-07T05:28:24;17.98;;;9.07;;
79220;SDS011;68648;52.114;5.424;2023-05-07T05:30:51;15.63;;;9.20;;
79220;SDS011;68648;52.114;5.424;2023-05-07T05:33:18;16.52;;;9.45;;
79220;SDS011;68648;52.114;5.424;2023-05-07T05:35:45;18.75;;;9.02;;
79220;SDS011;68648;52.114;5.424;2023-05-07T05:38:14;17.10;;;10.40;;
79220;SDS011;68648;52.114;5.424;2023-05-07T05:40:41;17.38;;;9.23;;
79220;SDS011;68648;52.114;5.424;2023-05-07T05:43:07;17.98;;;9.85;;
79220;SDS011;68648;52.114;5.424;2023-05-07T05:45:34;20.10;;;10.55;;
79220;SDS011;68648;52.114;5.424;2023-05-07T05:48:03;19.15;;;10.32;;
79220;SDS011;68648;52.114;5.424;2023-05-07T05:50:30;18.77;;;10.25;;
79220;SDS011;68648;52.114;5.424;2023-05-07T05:52:56;18.40;;;10.27;;
79220;SDS011;68648;52.114;5.424;2023-05-07T05:55:25;20.10;;;10.48;;
79220;SDS011;68648;52.114;5.424;2023-05-07T05:57:52;20.08;;;9.77;;
79220;SDS011;68648;52.114;5.424;2023-05-07T06:00:19;16.55;;;9.27;;
79220;SDS011;68648;52.114;5.424;2023-05-07T06:02:51;18.60;;;10.50;;
79220;SDS011;68648;52.114;5.424;2023-05-07T06:05:18;16.65;;;9.13;;
79220;SDS011;68648;52.114;5.424;2023-05-07T06:07:45;19.35;;;10.40;;
79220;SDS011;68648;52.114;5.424;2023-05-07T06:10:11;21.27;;;10.75;;
79220;SDS011;68648;52.114;5.424;2023-05-07T06:12:39;17.75;;;9.90;;
79220;SDS011;68648;52.114;5.424;2023-05-07T06:15:06;20.40;;;9.90;;
79220;SDS011;68648;52.114;5.424;2023-05-07T06:17:33;16.52;;;9.20;;
79220;SDS011;68648;52.114;5.424;2023-05-07T06:20:06;16.20;;;8.85;;
79220;SDS011;68648;52.114;5.424;2023-05-07T06:22:33;17.67;;;9.25;;
79220;SDS011;68648;52.114;5.424;2023-05-07T06:24:59;18.20;;;9.30;;
79220;SDS011;68648;52.114;5.424;2023-05-07T06:27:26;18.52;;;8.82;;
79220;SDS011;68648;52.114;5.424;2023-05-07T06:29:54;17.60;;;9.77;;
79220;SDS011;68648;52.114;5.424;2023-05-07T06:32:21;20.45;;;10.52;;
79220;SDS011;68648;52.114;5.424;2023-05-07T06:34:47;18.23;;;10.00;;
79220;SDS011;68648;52.114;5.424;2023-05-07T06:37:14;20.80;;;10.30;;
79220;SDS011;68648;52.114;5.424;2023-05-07T06:39:41;18.77;;;10.55;;
79220;SDS011;68648;52.114;5.424;2023-05-07T06:42:08;21.85;;;10.55;;
79220;SDS011;68648;52.114;5.424;2023-05-07T06:44:35;21.95;;;10.82;;
79220;SDS011;68648;52.114;5.424;2023-05-07T06:47:01;17.70;;;9.90;;
79220;SDS011;68648;52.114;5.424;2023-05-07T06:49:28;20.52;;;11.45;;
79220;SDS011;68648;52.114;5.424;2023-05-07T06:51:55;19.77;;;11.90;;
79220;SDS011;68648;52.114;5.424;2023-05-07T06:54:22;21.25;;;11.07;;
79220;SDS011;68648;52.114;5.424;2023-05-07T06:56:50;18.52;;;11.05;;
79220;SDS011;68648;52.114;5.424;2023-05-07T06:59:16;18.52;;;11.63;;
79220;SDS011;68648;52.114;5.424;2023-05-07T07:01:43;24.42;;;11.07;;
79220;SDS011;68648;52.114;5.424;2023-05-07T07:04:10;21.55;;;11.80;;
79220;SDS011;68648;52.114;5.424;2023-05-07T07:06:40;20.33;;;11.93;;
79220;SDS011;68648;52.114;5.424;2023-05-07T07:09:06;18.27;;;10.80;;
79220;SDS011;68648;52.114;5.424;2023-05-07T07:11:33;20.27;;;11.32;;
79220;SDS011;68648;52.114;5.424;2023-05-07T07:14:00;18.70;;;10.30;;
79220;SDS011;68648;52.114;5.424;2023-05-07T07:16:27;18.90;;;10.88;;
79220;SDS011;68648;52.114;5.424;2023-05-07T07:18:53;20.17;;;11.38;;
79220;SDS011;68648;52.114;5.424;2023-05-07T07:21:22;16.80;;;9.98;;
79220;SDS011;68648;52.114;5.424;2023-05-07T07:23:49;19.08;;;10.55;;
79220;SDS011;68648;52.114;5.424;2023-05-07T07:26:16;18.73;;;10.70;;
79220;SDS011;68648;52.114;5.424;2023-05-07T07:28:44;19.23;;;10.75;;
79220;SDS011;68648;52.114;5.424;2023-05-07T07:31:11;17.58;;;11.18;;
79220;SDS011;68648;52.114;5.424;2023-05-07T07:33:39;17.25;;;10.63;;
79220;SDS011;68648;52.114;5.424;2023-05-07T07:36:06;18.15;;;11.30;;
79220;SDS011;68648;52.114;5.424;2023-05-07T07:38:33;19.98;;;10.90;;
79220;SDS011;68648;52.114;5.424;2023-05-07T07:41:01;16.73;;;9.85;;
79220;SDS011;68648;52.114;5.424;2023-05-07T07:43:28;17.38;;;10.60;;
79220;SDS011;68648;52.114;5.424;2023-05-07T07:45:55;17.58;;;10.27;;
79220;SDS011;68648;52.114;5.424;2023-05-07T07:48:21;22.25;;;11.77;;
79220;SDS011;68648;52.114;5.424;2023-05-07T07:50:48;16.63;;;9.70;;
79220;SDS011;68648;52.114;5.424;2023-05-07T07:53:16;15.77;;;10.35;;
79220;SDS011;68648;52.114;5.424;2023-05-07T07:55:43;17.05;;;10.40;;
79220;SDS011;68648;52.114;5.424;2023-05-07T07:58:10;18.00;;;9.68;;
79220;SDS011;68648;52.114;5.424;2023-05-07T08:00:37;18.13;;;10.48;;
79220;SDS011;68648;52.114;5.424;2023-05-07T08:03:03;16.13;;;9.60;;
79220;SDS011;68648;52.114;5.424;2023-05-07T08:05:31;15.88;;;10.32;;
79220;SDS011;68648;52.114;5.424;2023-05-07T08:07:58;16.67;;;9.25;;
79220;SDS011;68648;52.114;5.424;2023-05-07T08:10:24;19.00;;;10.70;;
79220;SDS011;68648;52.114;5.424;2023-05-07T08:12:51;18.15;;;10.90;;
79220;SDS011;68648;52.114;5.424;2023-05-07T08:15:18;17.73;;;11.05;;
79220;SDS011;68648;52.114;5.424;2023-05-07T08:17:45;17.15;;;9.60;;
79220;SDS011;68648;52.114;5.424;2023-05-07T08:20:11;15.80;;;9.52;;
79220;SDS011;68648;52.114;5.424;2023-05-07T08:22:38;18.50;;;10.63;;
79220;SDS011;68648;52.114;5.424;2023-05-07T08:25:05;21.77;;;10.25;;
79220;SDS011;68648;52.114;5.424;2023-05-07T08:27:32;18.55;;;10.35;;
79220;SDS011;68648;52.114;5.424;2023-05-07T08:29:59;16.85;;;10.65;;
79220;SDS011;68648;52.114;5.424;2023-05-07T08:32:26;18.38;;;10.20;;
79220;SDS011;68648;52.114;5.424;2023-05-07T08:34:52;19.58;;;10.80;;
79220;SDS011;68648;52.114;5.424;2023-05-07T08:37:19;18.67;;;11.65;;
79220;SDS011;68648;52.114;5.424;2023-05-07T08:39:46;20.58;;;11.57;;
79220;SDS011;68648;52.114;5.424;2023-05-07T08:42:12;19.58;;;12.40;;
79220;SDS011;68648;52.114;5.424;2023-05-07T08:44:43;19.75;;;10.80;;
79220;SDS011;68648;52.114;5.424;2023-05-07T08:47:13;20.50;;;11.00;;
79220;SDS011;68648;52.114;5.424;2023-05-07T08:49:40;19.35;;;11.48;;
79220;SDS011;68648;52.114;5.424;2023-05-07T08:52:07;17.65;;;11.18;;
79220;SDS011;68648;52.114;5.424;2023-05-07T08:54:36;19.77;;;11.30;;
79220;SDS011;68648;52.114;5.424;2023-05-07T08:57:04;20.92;;;11.70;;
79220;SDS011;68648;52.114;5.424;2023-05-07T08:59:30;21.10;;;11.98;;
79220;SDS011;68648;52.114;5.424;2023-05-07T09:01:57;20.98;;;12.15;;
79220;SDS011;68648;52.114;5.424;2023-05-07T09:04:24;19.65;;;11.07;;
79220;SDS011;68648;52.114;5.424;2023-05-07T09:06:51;19.40;;;12.02;;
79220;SDS011;68648;52.114;5.424;2023-05-07T09:09:17;17.92;;;11.60;;
79220;SDS011;68648;52.114;5.424;2023-05-07T09:11:47;20.00;;;11.32;;
79220;SDS011;68648;52.114;5.424;2023-05-07T09:14:13;19.67;;;11.57;;
79220;SDS011;68648;52.114;5.424;2023-05-07T09:16:40;18.85;;;12.30;;
79220;SDS011;68648;52.114;5.424;2023-05-07T09:19:07;18.52;;;11.85;;
79220;SDS011;68648;52.114;5.424;2023-05-07T09:21:34;19.13;;;11.40;;
79220;SDS011;68648;52.114;5.424;2023-05-07T09:24:01;18.92;;;10.90;;
79220;SDS011;68648;52.114;5.424;2023-05-07T09:26:28;18.40;;;10.68;;
79220;SDS011;68648;52.114;5.424;2023-05-07T09:28:55;17.75;;;10.82;;
79220;SDS011;68648;52.114;5.424;2023-05-07T09:31:21;17.55;;;10.32;;
79220;SDS011;68648;52.114;5.424;2023-05-07T09:33:50;17.77;;;11.00;;
79220;SDS011;68648;52.114;5.424;2023-05-07T09:36:19;21.52;;;12.27;;
79220;SDS011;68648;52.114;5.424;2023-05-07T09:38:46;22.40;;;11.95;;
79220;SDS011;68648;52.114;5.424;2023-05-07T09:41:12;19.25;;;12.40;;
79220;SDS011;68648;52.114;5.424;2023-05-07T09:43:39;20.02;;;11.30;;
79220;SDS011;68648;52.114;5.424;2023-05-07T09:46:07;18.50;;;12.38;;
79220;SDS011;68648;52.114;5.424;2023-05-07T09:48:38;20.27;;;11.55;;
79220;SDS011;68648;52.114;5.424;2023-05-07T09:51:11;21.02;;;12.35;;
79220;SDS011;68648;52.114;5.424;2023-05-07T09:54:00;20.75;;;12.20;;
79220;SDS011;68648;52.114;5.424;2023-05-07T09:56:29;20.45;;;11.88;;
79220;SDS011;68648;52.114;5.424;2023-05-07T09:58:59;21.30;;;11.60;;
79220;SDS011;68648;52.114;5.424;2023-05-07T10:01:27;19.77;;;11.48;;
79220;SDS011;68648;52.114;5.424;2023-05-07T10:03:54;19.33;;;11.40;;
79220;SDS011;68648;52.114;5.424;2023-05-07T10:06:22;20.98;;;12.93;;
79220;SDS011;68648;52.114;5.424;2023-05-07T10:08:50;20.83;;;11.50;;
79220;SDS011;68648;52.114;5.424;2023-05-07T10:11:18;20.30;;;12.07;;
79220;SDS011;68648;52.114;5.424;2023-05-07T10:13:45;22.00;;;12.52;;
79220;SDS011;68648;52.114;5.424;2023-05-07T10:16:12;17.70;;;10.65;;
79220;SDS011;68648;52.114;5.424;2023-05-07T10:18:40;19.90;;;12.18;;
79220;SDS011;68648;52.114;5.424;2023-05-07T10:21:08;21.60;;;11.52;;
79220;SDS011;68648;52.114;5.424;2023-05-07T10:23:40;19.63;;;11.80;;
79220;SDS011;68648;52.114;5.424;2023-05-07T10:26:10;19.80;;;11.80;;
79220;SDS011;68648;52.114;5.424;2023-05-07T10:28:39;20.00;;;11.93;;
79220;SDS011;68648;52.114;5.424;2023-05-07T10:33:58;19.80;;;12.63;;
79220;SDS011;68648;52.114;5.424;2023-05-07T10:36:27;17.98;;;10.93;;
79220;SDS011;68648;52.114;5.424;2023-05-07T10:38:54;20.02;;;11.63;;
79220;SDS011;68648;52.114;5.424;2023-05-07T10:41:21;17.58;;;11.40;;
79220;SDS011;68648;52.114;5.424;2023-05-07T10:43:48;17.35;;;10.23;;
79220;SDS011;68648;52.114;5.424;2023-05-07T10:46:15;15.30;;;10.85;;
79220;SDS011;68648;52.114;5.424;2023-05-07T10:51:34;19.48;;;10.93;;
79220;SDS011;68648;52.114;5.424;2023-05-07T10:56:41;17.35;;;10.43;;
79220;SDS011;68648;52.114;5.424;2023-05-07T11:02:06;18.67;;;10.52;;
79220;SDS011;68648;52.114;5.424;2023-05-07T11:04:34;18.33;;;9.88;;
79220;SDS011;68648;52.114;5.424;2023-05-07T11:15:08;19.02;;;11.25;;
79220;SDS011;68648;52.114;5.424;2023-05-07T11:17:52;18.05;;;10.60;;
79220;SDS011;68648;52.114;5.424;2023-05-07T11:26:05;17.52;;;10.57;;
79220;SDS011;68648;52.114;5.424;2023-05-07T11:28:39;18.73;;;10.98;;
79220;SDS011;68648;52.114;5.424;2023-05-07T11:31:07;16.67;;;11.18;;
79220;SDS011;68648;52.114;5.424;2023-05-07T11:33:35;17.63;;;10.07;;
79220;SDS011;68648;52.114;5.424;2023-05-07T11:36:02;20.38;;;12.07;;
79220;SDS011;68648;52.114;5.424;2023-05-07T11:38:33;17.10;;;10.68;;
79220;SDS011;68648;52.114;5.424;2023-05-07T11:41:01;17.52;;;11.88;;
79220;SDS011;68648;52.114;5.424;2023-05-07T11:43:31;19.70;;;12.05;;
79220;SDS011;68648;52.114;5.424;2023-05-07T11:46:11;16.98;;;11.15;;
79220;SDS011;68648;52.114;5.424;2023-05-07T11:48:41;18.10;;;11.60;;
79220;SDS011;68648;52.114;5.424;2023-05-07T11:51:09;17.05;;;11.32;;
79220;SDS011;68648;52.114;5.424;2023-05-07T11:53:38;18.23;;;11.27;;
79220;SDS011;68648;52.114;5.424;2023-05-07T11:56:07;17.48;;;11.15;;
79220;SDS011;68648;52.114;5.424;2023-05-07T11:58:37;17.65;;;12.27;;
79220;SDS011;68648;52.114;5.424;2023-05-07T12:01:06;16.95;;;11.35;;
79220;SDS011;68648;52.114;5.424;2023-05-07T12:03:35;18.42;;;11.98;;
79220;SDS011;68648;52.114;5.424;2023-05-07T12:06:06;18.88;;;12.23;;
79220;SDS011;68648;52.114;5.424;2023-05-07T12:08:32;22.10;;;12.30;;
79220;SDS011;68648;52.114;5.424;2023-05-07T12:11:02;19.60;;;11.85;;
79220;SDS011;68648;52.114;5.424;2023-05-07T12:13:28;18.95;;;11.90;;
79220;SDS011;68648;52.114;5.424;2023-05-07T12:15:55;15.48;;;11.18;;
79220;SDS011;68648;52.114;5.424;2023-05-07T12:18:22;18.95;;;11.73;;
79220;SDS011;68648;52.114;5.424;2023-05-07T12:20:50;15.80;;;11.35;;
79220;SDS011;68648;52.114;5.424;2023-05-07T12:23:17;16.27;;;11.70;;
79220;SDS011;68648;52.114;5.424;2023-05-07T12:25:44;18.58;;;11.95;;
79220;SDS011;68648;52.114;5.424;2023-05-07T12:28:14;16.33;;;10.73;;
79220;SDS011;68648;52.114;5.424;2023-05-07T12:30:44;16.67;;;12.00;;
79220;SDS011;68648;52.114;5.424;2023-05-07T12:33:16;14.93;;;11.50;;
79220;SDS011;68648;52.114;5.424;2023-05-07T12:38:12;16.75;;;10.85;;
79220;SDS011;68648;52.114;5.424;2023-05-07T12:40:44;18.13;;;12.05;;
79220;SDS011;68648;52.114;5.424;2023-05-07T12:43:18;15.95;;;10.25;;
79220;SDS011;68648;52.114;5.424;2023-05-07T12:45:53;13.23;;;9.55;;
79220;SDS011;68648;52.114;5.424;2023-05-07T12:48:21;13.57;;;9.77;;
79220;SDS011;68648;52.114;5.424;2023-05-07T12:50:49;13.65;;;8.75;;
79220;SDS011;68648;52.114;5.424;2023-05-07T12:53:16;12.70;;;8.63;;
79220;SDS011;68648;52.114;5.424;2023-05-07T12:55:43;13.15;;;8.43;;
79220;SDS011;68648;52.114;5.424;2023-05-07T12:58:30;14.77;;;9.55;;
79220;SDS011;68648;52.114;5.424;2023-05-07T13:01:00;12.30;;;8.60;;
79220;SDS011;68648;52.114;5.424;2023-05-07T13:03:36;12.85;;;9.00;;
79220;SDS011;68648;52.114;5.424;2023-05-07T13:06:07;11.35;;;7.50;;
79220;SDS011;68648;52.114;5.424;2023-05-07T13:08:41;14.77;;;7.88;;
79220;SDS011;68648;52.114;5.424;2023-05-07T13:11:11;10.63;;;6.75;;
79220;SDS011;68648;52.114;5.424;2023-05-07T13:13:41;11.77;;;7.13;;
79220;SDS011;68648;52.114;5.424;2023-05-07T13:16:09;14.43;;;8.77;;
79220;SDS011;68648;52.114;5.424;2023-05-07T13:18:38;13.27;;;9.38;;
79220;SDS011;68648;52.114;5.424;2023-05-07T13:21:05;15.85;;;9.00;;
79220;SDS011;68648;52.114;5.424;2023-05-07T13:23:32;12.98;;;9.05;;
79220;SDS011;68648;52.114;5.424;2023-05-07T13:25:59;13.40;;;8.40;;
79220;SDS011;68648;52.114;5.424;2023-05-07T13:28:31;14.77;;;10.38;;
79220;SDS011;68648;52.114;5.424;2023-05-07T13:30:57;15.32;;;10.30;;
79220;SDS011;68648;52.114;5.424;2023-05-07T13:33:24;16.02;;;9.98;;
79220;SDS011;68648;52.114;5.424;2023-05-07T13:35:50;13.32;;;8.35;;
79220;SDS011;68648;52.114;5.424;2023-05-07T13:38:17;12.13;;;7.38;;
79220;SDS011;68648;52.114;5.424;2023-05-07T13:40:44;14.45;;;8.52;;
79220;SDS011;68648;52.114;5.424;2023-05-07T13:43:10;15.38;;;9.80;;
79220;SDS011;68648;52.114;5.424;2023-05-07T13:45:37;14.50;;;9.48;;
79220;SDS011;68648;52.114;5.424;2023-05-07T13:48:03;17.40;;;10.07;;
79220;SDS011;68648;52.114;5.424;2023-05-07T13:50:30;15.48;;;9.30;;
79220;SDS011;68648;52.114;5.424;2023-05-07T13:52:57;18.85;;;9.25;;
79220;SDS011;68648;52.114;5.424;2023-05-07T13:55:23;16.45;;;10.45;;
79220;SDS011;68648;52.114;5.424;2023-05-07T13:58:00;17.95;;;10.90;;
79220;SDS011;68648;52.114;5.424;2023-05-07T14:00:32;17.52;;;11.35;;
79220;SDS011;68648;52.114;5.424;2023-05-07T14:02:59;17.17;;;11.20;;
79220;SDS011;68648;52.114;5.424;2023-05-07T14:05:25;19.10;;;11.10;;
79220;SDS011;68648;52.114;5.424;2023-05-07T14:07:54;20.23;;;11.63;;
79220;SDS011;68648;52.114;5.424;2023-05-07T14:10:24;18.13;;;11.25;;
79220;SDS011;68648;52.114;5.424;2023-05-07T14:12:51;16.75;;;11.82;;
79220;SDS011;68648;52.114;5.424;2023-05-07T14:15:19;18.40;;;11.23;;
79220;SDS011;68648;52.114;5.424;2023-05-07T14:17:45;17.55;;;10.90;;
79220;SDS011;68648;52.114;5.424;2023-05-07T14:20:15;19.40;;;11.88;;
79220;SDS011;68648;52.114;5.424;2023-05-07T14:22:42;20.35;;;11.25;;
79220;SDS011;68648;52.114;5.424;2023-05-07T14:25:11;19.38;;;11.70;;
79220;SDS011;68648;52.114;5.424;2023-05-07T14:27:37;20.58;;;12.10;;
79220;SDS011;68648;52.114;5.424;2023-05-07T14:30:04;16.33;;;10.00;;
79220;SDS011;68648;52.114;5.424;2023-05-07T14:32:32;20.45;;;11.63;;
79220;SDS011;68648;52.114;5.424;2023-05-07T14:34:59;18.25;;;11.43;;
79220;SDS011;68648;52.114;5.424;2023-05-07T14:37:26;16.30;;;10.73;;
79220;SDS011;68648;52.114;5.424;2023-05-07T14:39:52;17.52;;;10.05;;
79220;SDS011;68648;52.114;5.424;2023-05-07T14:42:21;15.20;;;9.52;;
79220;SDS011;68648;52.114;5.424;2023-05-07T14:44:48;14.75;;;9.00;;
79220;SDS011;68648;52.114;5.424;2023-05-07T14:47:14;16.15;;;8.57;;
79220;SDS011;68648;52.114;5.424;2023-05-07T14:49:44;16.40;;;8.93;;
79220;SDS011;68648;52.114;5.424;2023-05-07T14:52:11;15.48;;;8.98;;
79220;SDS011;68648;52.114;5.424;2023-05-07T14:54:38;15.50;;;8.82;;
79220;SDS011;68648;52.114;5.424;2023-05-07T14:57:05;15.82;;;9.68;;
79220;SDS011;68648;52.114;5.424;2023-05-07T14:59:34;17.00;;;9.07;;